Time;durP1;ratioP1;P1;durP2;ratioP2;P2;SDS_P1;SDS_P2;PMS_P1;PMS_P2;Temp;Humidity;BMP_temperature;BMP_pressure;BME280_temperature;BME280_humidity;BME280_pressure;Samples;Min_cycle;Max_cycle;Signal;HPM_P1;HPM_P2
2023/12/27 00:00:48;;;;;;;11.02;7.28;;;5.50;99.90;;;;;;5072241;28;20119;-85
2023/12/27 00:03:14;;;;;;;11.18;7.13;;;5.50;99.90;;;;;;5038858;28;20078;-85
2023/12/27 00:05:40;;;;;;;11.73;7.13;;;5.50;99.90;;;;;;5055610;28;20362;-85
2023/12/27 00:08:05;;;;;;;10.93;6.70;;;5.60;99.90;;;;;;5052016;28;20358;-85
2023/12/27 00:10:31;;;;;;;10.18;6.45;;;5.50;99.90;;;;;;5046982;28;20111;-85
2023/12/27 00:12:57;;;;;;;12.77;7.13;;;5.50;99.90;;;;;;5049776;28;20029;-85
2023/12/27 00:15:22;;;;;;;10.30;6.35;;;5.50;99.90;;;;;;5049630;28;20364;-85
2023/12/27 00:17:48;;;;;;;14.38;7.25;;;5.50;99.90;;;;;;5076193;28;20408;-85
2023/12/27 00:20:14;;;;;;;11.25;6.30;;;5.50;99.90;;;;;;5042841;28;20063;-85
2023/12/27 00:22:40;;;;;;;11.95;6.88;;;5.50;99.90;;;;;;5043621;28;20051;-85
2023/12/27 00:25:06;;;;;;;11.23;7.28;;;5.50;99.90;;;;;;5049801;28;20052;-85
2023/12/27 00:27:32;;;;;;;11.30;6.47;;;5.50;99.90;;;;;;5087090;28;20028;-83
2023/12/27 00:29:57;;;;;;;12.70;6.63;;;5.40;99.90;;;;;;5100996;28;20075;-85
2023/12/27 00:32:23;;;;;;;11.95;6.45;;;5.40;99.90;;;;;;5072818;28;20036;-85
2023/12/27 00:34:49;;;;;;;11.90;6.95;;;5.40;99.90;;;;;;5076094;28;20028;-86
2023/12/27 00:37:15;;;;;;;11.90;7.18;;;5.40;99.90;;;;;;5059122;28;20470;-85
2023/12/27 00:39:41;;;;;;;9.77;6.95;;;5.30;99.90;;;;;;5077061;28;20020;-86
2023/12/27 00:42:07;;;;;;;12.48;6.88;;;5.30;99.90;;;;;;5038878;28;20039;-85
2023/12/27 00:44:33;;;;;;;9.93;7.10;;;5.30;99.90;;;;;;5060499;28;20504;-84
2023/12/27 00:46:59;;;;;;;12.95;6.97;;;5.30;99.90;;;;;;5054799;28;20048;-85
2023/12/27 00:49:25;;;;;;;9.50;6.50;;;5.20;99.90;;;;;;5074960;28;20109;-85
2023/12/27 00:51:50;;;;;;;10.38;6.40;;;5.20;99.90;;;;;;5058511;28;20028;-85
2023/12/27 00:54:18;;;;;;;10.40;6.55;;;5.20;99.90;;;;;;5064112;28;20071;-85
2023/12/27 00:56:43;;;;;;;10.20;6.82;;;5.10;99.90;;;;;;5055657;28;20031;-86
2023/12/27 00:59:09;;;;;;;9.77;6.28;;;5.10;99.90;;;;;;5043743;28;20380;-84
2023/12/27 01:01:35;;;;;;;11.82;7.30;;;5.10;99.90;;;;;;5054876;28;20543;-85
2023/12/27 01:04:01;;;;;;;10.13;6.60;;;5.10;99.90;;;;;;5054667;28;20071;-85
2023/12/27 01:06:26;;;;;;;12.90;7.40;;;5.00;99.90;;;;;;5054855;28;20048;-85
2023/12/27 01:08:52;;;;;;;10.75;6.80;;;5.00;99.90;;;;;;5074693;28;20039;-86
2023/12/27 01:11:18;;;;;;;10.60;6.72;;;5.00;99.90;;;;;;5058518;28;20516;-86
2023/12/27 01:13:44;;;;;;;10.90;7.22;;;5.00;99.90;;;;;;5074488;28;20503;-85
2023/12/27 01:16:10;;;;;;;10.00;6.47;;;5.00;99.90;;;;;;5092667;28;20016;-86
2023/12/27 01:18:35;;;;;;;10.80;6.28;;;5.00;99.90;;;;;;5045068;28;20051;-85
2023/12/27 01:21:01;;;;;;;11.57;7.15;;;4.90;99.90;;;;;;5025549;28;20031;-85
2023/12/27 01:23:27;;;;;;;12.07;6.95;;;4.90;99.90;;;;;;5058010;28;20028;-86
2023/12/27 01:25:53;;;;;;;11.75;6.68;;;4.90;99.90;;;;;;5074880;28;20032;-85
2023/12/27 01:28:18;;;;;;;12.57;7.78;;;4.80;99.90;;;;;;5074737;28;20376;-86
2023/12/27 01:30:44;;;;;;;11.95;7.47;;;4.80;99.90;;;;;;5074764;28;20020;-85
2023/12/27 01:33:12;;;;;;;11.05;7.75;;;4.80;99.90;;;;;;5055320;28;20036;-85
2023/12/27 01:35:38;;;;;;;13.63;7.20;;;4.80;99.90;;;;;;5075599;28;20028;-85
2023/12/27 01:38:04;;;;;;;13.02;7.65;;;4.90;99.90;;;;;;5078462;28;20562;-85
2023/12/27 01:40:30;;;;;;;12.25;6.47;;;4.80;99.90;;;;;;5078930;28;20024;-85
2023/12/27 01:42:56;;;;;;;11.23;7.28;;;4.80;99.90;;;;;;5079809;28;20429;-86
2023/12/27 01:45:22;;;;;;;10.10;7.05;;;4.80;99.90;;;;;;5089495;28;20012;-85
2023/12/27 01:47:48;;;;;;;11.77;7.95;;;4.80;99.90;;;;;;5086053;28;20027;-84
2023/12/27 01:50:15;;;;;;;14.25;8.50;;;4.80;99.90;;;;;;5105610;28;20036;-85
2023/12/27 01:52:42;;;;;;;11.18;7.65;;;4.80;99.90;;;;;;5086221;28;20051;-85
2023/12/27 01:55:09;;;;;;;13.07;7.80;;;4.90;99.90;;;;;;5062323;28;20062;-85
2023/12/27 01:57:38;;;;;;;11.82;8.52;;;4.90;99.90;;;;;;5060854;28;20115;-85
2023/12/27 02:00:06;;;;;;;14.13;7.85;;;4.90;99.90;;;;;;5078227;28;20039;-83
2023/12/27 02:02:38;;;;;;;12.38;7.93;;;5.00;99.90;;;;;;5061273;28;20063;-81
2023/12/27 02:05:03;;;;;;;;;;;5.00;99.90;;;;;;5062901;28;20021;-84
2023/12/27 02:07:29;;;;;;;11.18;7.10;;;5.00;99.90;;;;;;5096756;28;19912;-84
2023/12/27 02:09:55;;;;;;;15.77;8.15;;;5.00;99.90;;;;;;5078702;28;20410;-84
2023/12/27 02:12:28;;;;;;;12.57;7.32;;;5.10;99.90;;;;;;5061914;28;20070;-84
2023/12/27 02:14:54;;;;;;;10.48;7.25;;;5.10;99.90;;;;;;5096793;28;20060;-84
2023/12/27 02:17:21;;;;;;;11.50;6.70;;;5.20;99.90;;;;;;5045416;28;20487;-84
2023/12/27 02:19:47;;;;;;;12.02;6.75;;;5.20;99.90;;;;;;5078071;28;20161;-84
2023/12/27 02:22:19;;;;;;;9.77;6.00;;;5.20;99.90;;;;;;5078324;28;20058;-84
2023/12/27 02:24:47;;;;;;;12.82;6.72;;;5.30;99.90;;;;;;5096641;28;20020;-83
2023/12/27 02:27:12;;;;;;;11.50;6.53;;;5.30;99.90;;;;;;5078461;28;20417;-84
2023/12/27 02:29:38;;;;;;;10.68;6.75;;;5.40;99.90;;;;;;5061321;28;20085;-83
2023/12/27 02:32:04;;;;;;;9.48;5.75;;;5.40;99.90;;;;;;5061323;28;20055;-83
2023/12/27 02:34:30;;;;;;;13.48;5.95;;;5.40;99.90;;;;;;5061381;28;20073;-83
2023/12/27 02:36:55;;;;;;;9.30;5.93;;;5.40;99.90;;;;;;5096339;28;20107;-83
2023/12/27 02:39:21;;;;;;;11.48;6.05;;;5.50;99.90;;;;;;5044435;28;20051;-84
2023/12/27 02:41:47;;;;;;;11.15;6.10;;;5.50;99.90;;;;;;5044238;28;20034;-84
2023/12/27 02:44:12;;;;;;;11.60;5.68;;;5.50;99.90;;;;;;5060933;28;20038;-84
2023/12/27 02:46:38;;;;;;;11.90;5.10;;;5.50;99.90;;;;;;5043674;28;20089;-84
2023/12/27 02:49:03;;;;;;;9.98;5.53;;;5.50;99.90;;;;;;5077669;28;20029;-84
2023/12/27 02:51:29;;;;;;;9.73;5.35;;;5.60;99.90;;;;;;5060750;28;20028;-83
2023/12/27 02:53:55;;;;;;;9.57;5.10;;;5.60;99.90;;;;;;5043719;28;20028;-84
2023/12/27 02:56:21;;;;;;;13.60;6.03;;;5.60;99.90;;;;;;5095479;28;20077;-84
2023/12/27 02:58:46;;;;;;;10.32;5.70;;;5.60;99.90;;;;;;5077581;28;20023;-83
2023/12/27 03:01:12;;;;;;;10.88;5.88;;;5.70;99.90;;;;;;5060782;28;20185;-84
2023/12/27 03:03:37;;;;;;;9.55;5.88;;;5.70;99.90;;;;;;5060658;28;20621;-84
2023/12/27 03:06:05;;;;;;;8.30;5.75;;;5.70;99.90;;;;;;5044577;28;20051;-84
2023/12/27 03:08:31;;;;;;;11.93;6.25;;;5.70;99.90;;;;;;5079998;28;20119;-84
2023/12/27 03:10:56;;;;;;;9.13;6.15;;;5.60;99.90;;;;;;5101762;28;20025;-82
2023/12/27 03:13:22;;;;;;;11.07;6.20;;;5.70;99.90;;;;;;5082670;28;20043;-83
2023/12/27 03:15:48;;;;;;;11.98;5.93;;;5.70;99.90;;;;;;5115754;28;20119;-84
2023/12/27 03:18:13;;;;;;;9.35;6.18;;;5.70;99.90;;;;;;5051670;28;20028;-84
2023/12/27 03:20:39;;;;;;;11.82;5.97;;;5.70;99.90;;;;;;5063005;28;20111;-84
2023/12/27 03:23:04;;;;;;;11.27;5.70;;;5.70;99.90;;;;;;5061771;28;20108;-84
2023/12/27 03:25:30;;;;;;;13.57;6.50;;;5.70;99.90;;;;;;5060793;28;20027;-84
2023/12/27 03:27:56;;;;;;;10.75;6.43;;;5.70;99.90;;;;;;5095729;28;20105;-83
2023/12/27 03:30:21;;;;;;;10.18;6.50;;;5.70;99.90;;;;;;5061103;28;20414;-84
2023/12/27 03:32:47;;;;;;;8.50;6.20;;;5.70;99.90;;;;;;5076991;28;20115;-84
2023/12/27 03:35:13;;;;;;;10.38;6.20;;;5.80;99.90;;;;;;5060142;28;20028;-84
2023/12/27 03:37:39;;;;;;;12.38;6.22;;;5.80;99.90;;;;;;5076162;28;20035;-83
2023/12/27 03:40:05;;;;;;;10.75;6.93;;;5.80;99.90;;;;;;5043374;28;20081;-84
2023/12/27 03:42:31;;;;;;;10.90;6.82;;;5.80;99.90;;;;;;5076211;28;20056;-84
2023/12/27 03:44:57;;;;;;;8.65;5.72;;;5.80;99.90;;;;;;5059236;28;20059;-83
2023/12/27 03:47:22;;;;;;;12.00;6.65;;;5.80;99.90;;;;;;5043189;28;20538;-84
2023/12/27 03:49:48;;;;;;;10.02;6.10;;;5.80;99.90;;;;;;5042974;28;20122;-84
2023/12/27 03:52:13;;;;;;;11.90;6.57;;;5.80;99.90;;;;;;5075953;28;20027;-84
2023/12/27 03:54:40;;;;;;;11.23;6.72;;;5.80;99.90;;;;;;5059434;28;20388;-84
2023/12/27 03:57:06;;;;;;;12.82;6.53;;;5.80;99.90;;;;;;5076204;28;20031;-84
2023/12/27 03:59:31;;;;;;;13.57;6.07;;;5.80;99.90;;;;;;5058943;28;20028;-84
2023/12/27 04:01:57;;;;;;;11.63;6.03;;;5.80;99.90;;;;;;5059284;28;20039;-84
2023/12/27 04:04:23;;;;;;;11.98;6.53;;;5.80;99.90;;;;;;5043002;28;20024;-84
2023/12/27 04:06:48;;;;;;;12.23;6.68;;;5.90;99.90;;;;;;5042619;28;20020;-84
2023/12/27 04:09:14;;;;;;;13.50;6.40;;;5.90;99.90;;;;;;5059298;28;20032;-84
2023/12/27 04:11:44;;;;;;;13.95;7.13;;;5.90;99.90;;;;;;5059364;28;20391;-84
2023/12/27 04:14:11;;;;;;;11.70;7.37;;;5.90;99.90;;;;;;5075567;28;20059;-84
2023/12/27 04:16:36;;;;;;;14.18;6.57;;;5.80;99.90;;;;;;5076583;28;20048;-84
2023/12/27 04:19:02;;;;;;;12.02;6.88;;;5.70;99.90;;;;;;5075933;28;20510;-83
2023/12/27 04:21:28;;;;;;;10.93;6.50;;;5.70;99.90;;;;;;5059763;28;20379;-84
2023/12/27 04:23:54;;;;;;;9.57;6.10;;;5.70;99.90;;;;;;5059111;28;20040;-83
2023/12/27 04:26:19;;;;;;;9.50;6.30;;;5.80;99.90;;;;;;5043398;28;20024;-84
2023/12/27 04:28:45;;;;;;;13.65;6.88;;;5.80;99.90;;;;;;5060037;28;20081;-84
2023/12/27 04:31:11;;;;;;;11.90;6.45;;;5.90;99.90;;;;;;5060679;28;20032;-84
2023/12/27 04:33:36;;;;;;;14.70;7.65;;;5.90;99.90;;;;;;5056490;28;20035;-84
2023/12/27 04:36:03;;;;;;;15.95;7.68;;;5.90;99.90;;;;;;5064034;28;20032;-84
2023/12/27 04:38:28;;;;;;;14.18;7.45;;;6.00;99.90;;;;;;5081626;28;20020;-84
2023/12/27 04:40:55;;;;;;;14.25;7.82;;;6.00;99.90;;;;;;5094752;28;20077;-84
2023/12/27 04:43:20;;;;;;;14.13;7.55;;;5.90;99.90;;;;;;5060470;28;20511;-84
2023/12/27 04:45:46;;;;;;;11.25;7.03;;;6.00;99.90;;;;;;5058960;28;20032;-84
2023/12/27 04:48:12;;;;;;;12.20;7.22;;;5.90;99.90;;;;;;5058843;28;20032;-84
2023/12/27 04:50:37;;;;;;;14.23;7.30;;;6.00;99.90;;;;;;5059286;28;20024;-83
2023/12/27 04:53:03;;;;;;;11.20;6.72;;;6.00;99.90;;;;;;5075571;28;20051;-84
2023/12/27 04:55:29;;;;;;;12.35;6.80;;;6.00;99.90;;;;;;5075711;28;20111;-84
2023/12/27 04:57:54;;;;;;;15.23;7.28;;;6.00;99.90;;;;;;5058490;28;20028;-84
2023/12/27 05:00:22;;;;;;;14.30;7.18;;;6.00;99.90;;;;;;5058931;28;20025;-84
2023/12/27 05:02:48;;;;;;;15.48;8.48;;;6.00;99.90;;;;;;5059062;28;20033;-84
2023/12/27 05:05:14;;;;;;;13.02;8.00;;;6.00;99.90;;;;;;5042444;28;20078;-84
2023/12/27 05:07:39;;;;;;;12.63;7.65;;;6.00;99.90;;;;;;5042264;28;20499;-83
2023/12/27 05:10:05;;;;;;;13.98;8.70;;;6.10;99.90;;;;;;5058595;28;20032;-84
2023/12/27 05:12:31;;;;;;;14.52;7.55;;;6.10;99.90;;;;;;5078781;28;20028;-84
2023/12/27 05:14:56;;;;;;;13.40;7.32;;;6.10;99.90;;;;;;5078930;28;20051;-83
2023/12/27 05:17:22;;;;;;;13.00;7.45;;;6.10;99.90;;;;;;5078862;28;20024;-84
2023/12/27 05:19:48;;;;;;;13.20;7.55;;;6.10;99.90;;;;;;5045871;28;20181;-84
2023/12/27 05:22:14;;;;;;;15.15;8.52;;;6.10;99.90;;;;;;5062685;28;20510;-84
2023/12/27 05:24:42;;;;;;;14.75;7.60;;;6.20;99.90;;;;;;5062207;28;20039;-84
2023/12/27 05:27:07;;;;;;;13.13;8.38;;;6.10;99.90;;;;;;5078943;28;20039;-83
2023/12/27 05:29:34;;;;;;;15.20;8.13;;;6.10;99.90;;;;;;5045723;28;20107;-83
2023/12/27 05:32:00;;;;;;;14.48;7.82;;;6.10;99.90;;;;;;5046256;28;20032;-84
2023/12/27 05:34:27;;;;;;;12.63;7.07;;;6.10;99.90;;;;;;5097393;28;20063;-84
2023/12/27 05:36:52;;;;;;;16.50;7.57;;;6.20;99.90;;;;;;5046579;28;20480;-84
2023/12/27 05:39:18;;;;;;;15.38;7.80;;;6.20;99.90;;;;;;5062688;28;20030;-84
2023/12/27 05:41:44;;;;;;;14.57;7.30;;;6.20;99.90;;;;;;5062805;28;20109;-84
2023/12/27 05:44:10;;;;;;;16.00;7.60;;;6.30;99.90;;;;;;5045812;28;20040;-83
2023/12/27 05:46:35;;;;;;;15.02;8.10;;;6.30;99.90;;;;;;5062731;28;20375;-85
2023/12/27 05:49:01;;;;;;;13.02;7.53;;;6.30;99.90;;;;;;5097096;28;20075;-86
2023/12/27 05:51:27;;;;;;;16.27;7.43;;;6.40;99.90;;;;;;5045584;28;20020;-85
2023/12/27 05:53:53;;;;;;;17.05;7.78;;;6.40;99.90;;;;;;5064310;28;20472;-85
2023/12/27 05:56:19;;;;;;;22.88;7.93;;;6.50;99.90;;;;;;5065612;28;20043;-85
2023/12/27 05:58:45;;;;;;;16.90;8.10;;;6.50;99.90;;;;;;5084872;28;20016;-86
2023/12/27 06:01:10;;;;;;;18.02;7.72;;;6.50;99.90;;;;;;5066777;28;20031;-86
2023/12/27 06:03:36;;;;;;;16.05;7.82;;;6.50;99.90;;;;;;5064552;28;20040;-86
2023/12/27 06:06:05;;;;;;;21.50;8.90;;;6.50;99.90;;;;;;5051775;28;20503;-85
2023/12/27 06:08:30;;;;;;;12.35;7.70;;;6.50;99.90;;;;;;5061970;28;20047;-86
2023/12/27 06:10:56;;;;;;;12.52;7.10;;;6.50;99.90;;;;;;5061882;28;20404;-86
2023/12/27 06:13:22;;;;;;;16.52;8.30;;;6.60;99.90;;;;;;5078211;28;20043;-86
2023/12/27 06:15:47;;;;;;;16.27;7.57;;;6.60;99.90;;;;;;5061228;28;20048;-86
2023/12/27 06:18:13;;;;;;;21.17;7.30;;;6.60;99.90;;;;;;5061625;28;20024;-86
2023/12/27 06:20:39;;;;;;;13.40;7.32;;;6.70;99.90;;;;;;5077990;28;20458;-86
2023/12/27 06:23:04;;;;;;;16.00;8.27;;;6.70;99.90;;;;;;5060806;28;20503;-87
2023/12/27 06:25:30;;;;;;;13.20;7.45;;;6.70;99.90;;;;;;5061242;28;20476;-86
2023/12/27 06:27:56;;;;;;;16.85;7.50;;;6.80;99.90;;;;;;5061365;28;20028;-85
2023/12/27 06:30:21;;;;;;;13.77;7.38;;;6.80;99.90;;;;;;5044515;28;20078;-86
2023/12/27 06:32:47;;;;;;;16.25;7.47;;;6.80;99.90;;;;;;5061277;28;20031;-85
2023/12/27 06:35:12;;;;;;;13.55;7.60;;;6.90;99.90;;;;;;5077784;28;20137;-85
2023/12/27 06:37:39;;;;;;;18.02;8.13;;;6.90;99.90;;;;;;5061050;28;20505;-86
2023/12/27 06:40:05;;;;;;;15.00;6.82;;;6.90;99.90;;;;;;5077739;28;20059;-85
2023/12/27 06:42:31;;;;;;;14.52;6.80;;;6.90;99.90;;;;;;5044778;28;20387;-85
2023/12/27 06:44:56;;;;;;;16.23;7.20;;;7.00;99.90;;;;;;5061037;28;20028;-85
2023/12/27 06:47:22;;;;;;;17.52;7.03;;;7.00;99.90;;;;;;5061073;28;20035;-85
2023/12/27 06:49:47;;;;;;;15.05;7.25;;;7.00;99.90;;;;;;5061458;28;20032;-86
2023/12/27 06:52:13;;;;;;;16.48;8.10;;;7.10;99.90;;;;;;5044331;28;20387;-86
2023/12/27 06:54:39;;;;;;;17.92;7.68;;;7.10;99.90;;;;;;5044160;28;20483;-85
2023/12/27 06:57:05;;;;;;;17.98;8.60;;;7.10;99.90;;;;;;5044228;28;20024;-85
2023/12/27 06:59:30;;;;;;;18.85;8.15;;;7.10;99.90;;;;;;5060762;28;20028;-86
2023/12/27 07:01:56;;;;;;;12.93;7.22;;;7.10;99.90;;;;;;5060815;28;20036;-86
2023/12/27 07:04:24;;;;;;;17.75;8.73;;;7.10;99.90;;;;;;5061000;28;20021;-86
2023/12/27 07:06:50;;;;;;;14.32;7.10;;;7.10;99.90;;;;;;5061067;28;20461;-86
2023/12/27 07:09:17;;;;;;;14.60;7.47;;;7.10;99.90;;;;;;5061005;28;20032;-85
2023/12/27 07:11:43;;;;;;;15.73;7.78;;;7.10;99.90;;;;;;5044795;28;20036;-84
2023/12/27 07:14:09;;;;;;;19.15;9.00;;;7.10;99.90;;;;;;5060944;28;20411;-86
2023/12/27 07:16:34;;;;;;;14.30;7.47;;;7.10;99.90;;;;;;5044980;28;20039;-86
2023/12/27 07:19:00;;;;;;;16.48;7.53;;;7.20;99.90;;;;;;5061910;28;20074;-86
2023/12/27 07:21:26;;;;;;;16.65;8.00;;;7.20;99.90;;;;;;5067925;28;20028;-82
2023/12/27 07:23:51;;;;;;;10.15;6.80;;;7.20;99.90;;;;;;5084281;28;20043;-84
2023/12/27 07:26:17;;;;;;;16.25;7.68;;;7.20;99.90;;;;;;5084382;28;20008;-83
2023/12/27 07:28:43;;;;;;;15.02;7.57;;;7.30;99.90;;;;;;5083781;28;20052;-83
2023/12/27 07:31:08;;;;;;;13.75;8.32;;;7.30;99.90;;;;;;5089818;28;20028;-83
2023/12/27 07:33:37;;;;;;;14.77;7.50;;;7.30;99.90;;;;;;5060586;28;20028;-86
2023/12/27 07:36:03;;;;;;;18.17;7.75;;;7.40;99.90;;;;;;5095460;28;20114;-85
2023/12/27 07:38:29;;;;;;;16.77;8.35;;;7.40;99.90;;;;;;5060374;28;20036;-85
2023/12/27 07:40:56;;;;;;;16.73;7.15;;;7.40;99.90;;;;;;5060110;28;20597;-84
2023/12/27 07:43:22;;;;;;;22.20;7.57;;;7.40;99.90;;;;;;5095003;28;20468;-84
2023/12/27 07:45:48;;;;;;;17.95;8.00;;;7.40;99.90;;;;;;5043076;28;20056;-84
2023/12/27 07:48:14;;;;;;;17.33;8.20;;;7.30;99.90;;;;;;5059825;28;20039;-85
2023/12/27 07:50:40;;;;;;;15.57;7.40;;;7.30;99.90;;;;;;5075723;28;20395;-85
2023/12/27 07:53:06;;;;;;;16.08;7.88;;;7.30;99.90;;;;;;5042672;28;20451;-85
2023/12/27 07:55:32;;;;;;;14.32;8.07;;;7.30;99.90;;;;;;5059045;28;20415;-84
2023/12/27 07:57:57;;;;;;;17.33;7.43;;;7.30;99.90;;;;;;5058862;28;20027;-85
2023/12/27 08:00:23;;;;;;;15.02;7.07;;;7.30;99.90;;;;;;5058978;28;20035;-85
2023/12/27 08:02:49;;;;;;;14.65;6.47;;;7.30;99.90;;;;;;5058636;28;20475;-86
2023/12/27 08:05:15;;;;;;;14.85;7.57;;;7.40;99.90;;;;;;5059104;28;20028;-85
2023/12/27 08:07:42;;;;;;;15.15;6.38;;;7.40;99.90;;;;;;5075595;28;20025;-85
2023/12/27 08:10:09;;;;;;;15.32;7.35;;;7.40;99.90;;;;;;5058977;28;20099;-83
2023/12/27 08:12:34;;;;;;;15.15;7.45;;;7.40;99.90;;;;;;5075109;28;20202;-85
2023/12/27 08:15:00;;;;;;;18.15;7.32;;;7.40;99.90;;;;;;5042025;28;20080;-85
2023/12/27 08:17:26;;;;;;;12.70;6.45;;;7.40;99.90;;;;;;5058553;28;20028;-85
2023/12/27 08:19:53;;;;;;;12.27;6.15;;;7.40;99.90;;;;;;5058887;28;20542;-86
2023/12/27 08:22:20;;;;;;;15.23;6.80;;;7.40;99.90;;;;;;5075629;28;20032;-85
2023/12/27 08:24:48;;;;;;;12.75;7.10;;;7.40;99.90;;;;;;5059128;28;20020;-85
2023/12/27 08:27:14;;;;;;;13.15;6.72;;;7.40;99.90;;;;;;5059759;28;20032;-86
2023/12/27 08:29:41;;;;;;;14.82;7.25;;;7.40;99.90;;;;;;5059288;28;20511;-83
2023/12/27 08:32:07;;;;;;;17.48;8.13;;;7.40;99.90;;;;;;5059276;28;20475;-86
2023/12/27 08:34:34;;;;;;;16.80;7.93;;;7.40;99.90;;;;;;5075840;28;20029;-85
2023/12/27 08:36:59;;;;;;;12.38;6.82;;;7.40;99.90;;;;;;5059147;28;20120;-86
2023/12/27 08:39:25;;;;;;;13.05;7.03;;;7.50;99.90;;;;;;5058874;28;20048;-85
2023/12/27 08:41:51;;;;;;;10.48;6.55;;;7.50;99.90;;;;;;5042112;28;20028;-85
2023/12/27 08:44:16;;;;;;;12.65;6.50;;;7.50;99.90;;;;;;5059336;28;20567;-86
2023/12/27 08:46:42;;;;;;;10.52;6.40;;;7.50;99.90;;;;;;5047990;28;20099;-86
2023/12/27 08:49:08;;;;;;;10.98;6.80;;;7.50;99.90;;;;;;5079727;28;20000;-85
2023/12/27 08:51:33;;;;;;;10.82;6.68;;;7.50;99.90;;;;;;5102254;28;20028;-86
2023/12/27 08:53:59;;;;;;;10.63;5.93;;;7.60;99.90;;;;;;5069099;28;20035;-85
2023/12/27 08:56:25;;;;;;;9.05;5.72;;;7.60;99.90;;;;;;5084185;28;20020;-86
2023/12/27 08:58:51;;;;;;;10.43;6.20;;;7.60;99.90;;;;;;5046517;28;20115;-87
2023/12/27 09:01:17;;;;;;;14.27;6.80;;;7.60;99.90;;;;;;5099284;28;20483;-86
2023/12/27 09:03:42;;;;;;;11.48;6.85;;;7.60;99.90;;;;;;5079371;28;20043;-87
2023/12/27 09:06:09;;;;;;;9.80;6.20;;;7.60;99.90;;;;;;5062818;28;20024;-86
2023/12/27 09:08:38;;;;;;;9.57;6.45;;;7.60;99.90;;;;;;5078650;28;20020;-87
2023/12/27 09:11:04;;;;;;;10.82;7.70;;;7.60;99.90;;;;;;5062211;28;20031;-87
2023/12/27 09:13:30;;;;;;;8.50;5.97;;;7.60;99.90;;;;;;5062197;28;20039;-86
2023/12/27 09:15:56;;;;;;;9.48;6.35;;;7.70;99.90;;;;;;5062205;28;20032;-87
2023/12/27 09:18:21;;;;;;;9.73;6.47;;;7.60;99.90;;;;;;5078450;28;20074;-85
2023/12/27 09:20:47;;;;;;;8.45;6.40;;;7.70;99.90;;;;;;5061953;28;20032;-86
2023/12/27 09:23:12;;;;;;;9.68;6.18;;;7.70;99.90;;;;;;5078629;28;20043;-86
2023/12/27 09:25:40;;;;;;;8.77;5.32;;;7.70;99.90;;;;;;5078556;28;20024;-87
2023/12/27 09:28:05;;;;;;;7.43;5.55;;;7.70;99.90;;;;;;5061734;28;20024;-86
2023/12/27 09:30:31;;;;;;;7.50;5.07;;;7.80;99.90;;;;;;5078417;28;20101;-87
2023/12/27 09:32:57;;;;;;;7.32;5.72;;;7.80;99.90;;;;;;5045203;28;20024;-85
2023/12/27 09:35:22;;;;;;;6.22;4.85;;;7.90;99.90;;;;;;5044933;28;20028;-84
2023/12/27 09:37:48;;;;;;;7.68;5.47;;;7.90;99.90;;;;;;5062362;28;20028;-88
2023/12/27 09:40:14;;;;;;;8.18;5.50;;;8.00;99.90;;;;;;5046006;28;20028;-89
2023/12/27 09:42:40;;;;;;;6.22;5.32;;;8.00;99.90;;;;;;5062231;28;20060;-88
2023/12/27 09:45:11;;;;;;;6.60;5.25;;;8.00;99.90;;;;;;5062169;28;20082;-87
2023/12/27 09:47:38;;;;;;;6.35;5.13;;;8.10;99.90;;;;;;5078897;28;20028;-89
2023/12/27 09:50:05;;;;;;;4.93;4.38;;;8.10;99.90;;;;;;5078947;28;20043;-86
2023/12/27 09:52:36;;;;;;;6.38;4.97;;;8.10;99.90;;;;;;5061938;28;20533;-84
2023/12/27 09:55:02;;;;;;;5.47;4.57;;;8.20;99.90;;;;;;5078210;28;20024;-86
2023/12/27 09:57:29;;;;;;;6.50;5.25;;;8.20;99.90;;;;;;5044816;28;20031;-86
2023/12/27 09:59:56;;;;;;;6.35;5.13;;;8.30;99.90;;;;;;5062662;28;20035;-85
2023/12/27 10:02:29;;;;;;;5.95;5.10;;;8.30;99.90;;;;;;5078812;28;20032;-85
2023/12/27 10:05:05;;;;;;;8.02;5.60;;;8.30;99.90;;;;;;5079210;28;20043;-86
2023/12/27 10:07:32;;;;;;;7.03;5.32;;;8.40;99.90;;;;;;5078946;28;20020;-86
2023/12/27 10:09:58;;;;;;;7.40;5.03;;;8.40;99.90;;;;;;5062467;28;20032;-86
2023/12/27 10:12:24;;;;;;;5.45;4.60;;;8.40;99.90;;;;;;5063312;28;20166;-86
2023/12/27 10:14:52;;;;;;;7.15;5.32;;;8.50;99.90;;;;;;5063705;28;20059;-85
2023/12/27 10:17:19;;;;;;;7.40;5.22;;;8.50;99.90;;;;;;5099141;28;20019;-85
2023/12/27 10:19:45;;;;;;;6.22;5.22;;;8.50;99.90;;;;;;5098174;28;20029;-86
2023/12/27 10:22:12;;;;;;;6.88;5.05;;;8.60;99.90;;;;;;5095085;28;20017;-85
2023/12/27 10:24:39;;;;;;;6.30;4.47;;;8.60;99.90;;;;;;5067390;28;20086;-86
2023/12/27 10:27:06;;;;;;;8.13;5.80;;;8.70;99.90;;;;;;5059250;28;20535;-85
2023/12/27 10:29:32;;;;;;;7.05;5.10;;;8.70;99.90;;;;;;5057963;28;20033;-87
2023/12/27 10:31:59;;;;;;;5.70;4.78;;;8.70;99.90;;;;;;5057751;28;20033;-86
2023/12/27 10:34:25;;;;;;;6.90;4.85;;;8.70;99.90;;;;;;5057523;28;20166;-85
2023/12/27 10:36:51;;;;;;;6.03;4.70;;;8.70;99.90;;;;;;5057721;28;20388;-85
2023/12/27 10:39:18;;;;;;;7.03;4.45;;;8.80;99.90;;;;;;5074076;28;20171;-86
2023/12/27 10:41:43;;;;;;;6.15;5.05;;;8.80;99.90;;;;;;5073925;28;20024;-86
2023/12/27 10:44:12;;;;;;;7.45;4.85;;;8.80;99.90;;;;;;5074683;28;20040;-86
2023/12/27 10:46:39;;;;;;;7.15;5.32;;;8.90;99.90;;;;;;5075067;28;20036;-86
2023/12/27 10:49:05;;;;;;;5.95;4.78;;;8.90;99.90;;;;;;5074035;28;20078;-84
2023/12/27 10:51:38;;;;;;;8.80;5.15;;;8.90;99.90;;;;;;5057102;28;20468;-86
2023/12/27 10:54:05;;;;;;;5.85;4.72;;;8.90;99.90;;;;;;5074504;28;20069;-85
2023/12/27 10:56:38;;;;;;;6.35;4.70;;;9.00;99.90;;;;;;5074937;28;20028;-85
2023/12/27 10:59:06;;;;;;;5.85;4.85;;;9.00;99.90;;;;;;5075296;28;20021;-86
2023/12/27 11:01:37;;;;;;;7.63;5.07;;;9.00;99.90;;;;;;5041706;28;20032;-85
2023/12/27 11:04:10;;;;;;;5.97;4.93;;;9.00;99.90;;;;;;5075014;28;20038;-86
2023/12/27 11:06:39;;;;;;;7.43;4.80;;;9.00;99.90;;;;;;5073176;28;20059;-86
2023/12/27 11:09:07;;;;;;;6.05;4.07;;;9.00;99.90;;;;;;5073708;28;20025;-84
2023/12/27 11:11:40;;;;;;;6.03;4.43;;;9.10;99.90;;;;;;5073470;28;20028;-84
2023/12/27 11:14:08;;;;;;;4.90;4.10;;;9.10;99.90;;;;;;5039789;28;20052;-84
2023/12/27 11:16:35;;;;;;;6.03;4.78;;;9.10;99.90;;;;;;5057712;28;20059;-84
2023/12/27 11:19:06;;;;;;;5.43;3.90;;;9.10;99.90;;;;;;5056925;28;20376;-84
2023/12/27 11:21:33;;;;;;;6.25;4.10;;;9.20;99.90;;;;;;5040412;28;20040;-83
2023/12/27 11:23:59;;;;;;;6.40;4.40;;;9.20;99.90;;;;;;5074652;28;20035;-83
2023/12/27 11:26:26;;;;;;;6.13;4.47;;;9.20;99.90;;;;;;5056477;28;20123;-83
2023/12/27 11:28:51;;;;;;;5.43;4.00;;;9.20;99.90;;;;;;5073465;28;20025;-83
2023/12/27 11:31:19;;;;;;;6.07;3.80;;;9.30;99.90;;;;;;5073704;28;20028;-83
2023/12/27 11:33:46;;;;;;;5.88;3.97;;;9.30;99.90;;;;;;5073452;28;20388;-83
2023/12/27 11:36:12;;;;;;;6.13;3.28;;;9.30;99.90;;;;;;5039685;28;20024;-82
2023/12/27 11:38:39;;;;;;;5.85;3.10;;;9.30;99.90;;;;;;5056492;28;20037;-83
2023/12/27 11:41:06;;;;;;;5.10;3.50;;;9.30;99.90;;;;;;5056693;28;20029;-83
2023/12/27 11:43:56;;;;;;;4.75;3.47;;;9.40;99.90;;;;;;5074608;28;20029;-83
2023/12/27 11:46:30;;;;;;;3.58;2.75;;;9.40;99.90;;;;;;5094410;28;20044;-84
2023/12/27 11:48:59;;;;;;;3.83;2.55;;;9.50;99.90;;;;;;5094373;28;20050;-84
2023/12/27 11:51:28;;;;;;;5.25;2.80;;;9.50;99.90;;;;;;5095624;28;20032;-84
2023/12/27 11:53:54;;;;;;;7.03;3.55;;;9.50;99.90;;;;;;5080213;28;20090;-84
2023/12/27 11:56:20;;;;;;;4.18;2.85;;;9.50;99.90;;;;;;5074404;28;20453;-83
2023/12/27 11:58:46;;;;;;;4.45;3.00;;;9.60;99.90;;;;;;5073747;28;20024;-85
2023/12/27 12:01:27;;;;;;;5.97;2.92;;;9.60;99.90;;;;;;5057251;28;20033;-86
2023/12/27 12:04:18;;;;;;;5.45;2.67;;;9.60;99.90;;;;;;5073122;28;20536;-86
2023/12/27 12:07:05;;;;;;;4.63;2.70;;;9.60;99.90;;;;;;5072672;28;20082;-85
2023/12/27 12:09:37;;;;;;;4.30;2.90;;;9.70;99.90;;;;;;5072704;28;20082;-84
2023/12/27 12:12:11;;;;;;;7.30;3.50;;;9.70;99.90;;;;;;5073530;28;20114;-86
2023/12/27 12:14:39;;;;;;;5.95;2.80;;;9.70;99.90;;;;;;5055620;28;20080;-86
2023/12/27 12:17:08;;;;;;;5.93;3.00;;;9.70;99.90;;;;;;5072781;28;20025;-86
2023/12/27 12:19:36;;;;;;;3.85;2.50;;;9.70;99.90;;;;;;5056800;28;20043;-87
2023/12/27 12:22:05;;;;;;;3.72;2.55;;;9.80;99.90;;;;;;5074004;28;20027;-85
2023/12/27 12:24:34;;;;;;;4.63;2.40;;;9.80;99.90;;;;;;5056172;28;20093;-86
2023/12/27 12:27:00;;;;;;;4.10;2.40;;;9.80;99.90;;;;;;5074238;28;20086;-83
2023/12/27 12:29:26;;;;;;;5.13;2.40;;;9.80;99.90;;;;;;5073328;28;20181;-85
2023/12/27 12:31:54;;;;;;;3.38;2.50;;;9.90;99.90;;;;;;5055968;28;20126;-86
2023/12/27 12:34:20;;;;;;;5.82;2.60;;;9.90;99.90;;;;;;5072306;28;20040;-86
2023/12/27 12:36:46;;;;;;;4.05;2.70;;;9.90;99.90;;;;;;5073046;28;20487;-85
2023/12/27 12:39:16;;;;;;;5.20;3.20;;;9.90;99.90;;;;;;5055641;28;20404;-86
2023/12/27 12:41:43;;;;;;;3.97;2.58;;;9.90;99.90;;;;;;5072456;28;20028;-85
2023/12/27 12:44:12;;;;;;;5.38;2.67;;;10.00;99.90;;;;;;5071266;28;20028;-85
2023/12/27 12:46:39;;;;;;;6.93;3.00;;;10.00;99.90;;;;;;5055877;28;20086;-84